sensor_id;sensor_type;location;lat;lon;timestamp;P1;durP1;ratioP1;P2;durP2;ratioP2
12663;SDS011;6396;58.490;15.528;2023-06-22T00:00:51;10.13;;;8.90;;
12663;SDS011;6396;58.490;15.528;2023-06-22T00:03:22;9.73;;;8.83;;
12663;SDS011;6396;58.490;15.528;2023-06-22T00:05:50;12.07;;;9.53;;
12663;SDS011;6396;58.490;15.528;2023-06-22T00:08:18;11.20;;;8.83;;
12663;SDS011;6396;58.490;15.528;2023-06-22T00:10:46;10.27;;;9.20;;
12663;SDS011;6396;58.490;15.528;2023-06-22T00:13:13;10.23;;;9.17;;
12663;SDS011;6396;58.490;15.528;2023-06-22T00:15:41;10.73;;;9.27;;
12663;SDS011;6396;58.490;15.528;2023-06-22T00:18:08;10.17;;;9.03;;
12663;SDS011;6396;58.490;15.528;2023-06-22T00:20:39;11.13;;;9.63;;
12663;SDS011;6396;58.490;15.528;2023-06-22T00:23:06;10.00;;;9.00;;
12663;SDS011;6396;58.490;15.528;2023-06-22T00:25:33;12.90;;;10.23;;
12663;SDS011;6396;58.490;15.528;2023-06-22T00:28:01;14.20;;;10.17;;
12663;SDS011;6396;58.490;15.528;2023-06-22T00:30:29;11.73;;;9.47;;
12663;SDS011;6396;58.490;15.528;2023-06-22T00:32:56;11.43;;;10.10;;
12663;SDS011;6396;58.490;15.528;2023-06-22T00:35:23;12.53;;;10.57;;
12663;SDS011;6396;58.490;15.528;2023-06-22T00:37:55;10.97;;;9.80;;
12663;SDS011;6396;58.490;15.528;2023-06-22T00:40:26;12.27;;;10.97;;
12663;SDS011;6396;58.490;15.528;2023-06-22T00:42:53;12.43;;;11.03;;
12663;SDS011;6396;58.490;15.528;2023-06-22T00:45:20;11.23;;;9.37;;
12663;SDS011;6396;58.490;15.528;2023-06-22T00:47:48;14.30;;;9.70;;
12663;SDS011;6396;58.490;15.528;2023-06-22T00:50:16;12.33;;;9.33;;
12663;SDS011;6396;58.490;15.528;2023-06-22T00:52:46;9.53;;;8.53;;
12663;SDS011;6396;58.490;15.528;2023-06-22T00:55:16;10.27;;;9.07;;
12663;SDS011;6396;58.490;15.528;2023-06-22T00:57:43;9.50;;;8.07;;
12663;SDS011;6396;58.490;15.528;2023-06-22T01:00:14;10.20;;;8.03;;
12663;SDS011;6396;58.490;15.528;2023-06-22T01:02:42;9.17;;;8.23;;
12663;SDS011;6396;58.490;15.528;2023-06-22T01:05:11;8.83;;;7.03;;
12663;SDS011;6396;58.490;15.528;2023-06-22T01:07:40;9.97;;;7.10;;
12663;SDS011;6396;58.490;15.528;2023-06-22T01:10:11;8.60;;;7.33;;
12663;SDS011;6396;58.490;15.528;2023-06-22T01:12:44;8.10;;;7.30;;
12663;SDS011;6396;58.490;15.528;2023-06-22T01:15:18;8.73;;;6.77;;
12663;SDS011;6396;58.490;15.528;2023-06-22T01:17:49;9.30;;;7.13;;
12663;SDS011;6396;58.490;15.528;2023-06-22T01:20:18;9.23;;;7.37;;
12663;SDS011;6396;58.490;15.528;2023-06-22T01:22:50;10.27;;;8.10;;
12663;SDS011;6396;58.490;15.528;2023-06-22T01:25:31;9.37;;;6.97;;
12663;SDS011;6396;58.490;15.528;2023-06-22T01:28:05;9.10;;;6.53;;
12663;SDS011;6396;58.490;15.528;2023-06-22T01:30:43;9.10;;;6.20;;
12663;SDS011;6396;58.490;15.528;2023-06-22T01:33:14;7.80;;;5.87;;
12663;SDS011;6396;58.490;15.528;2023-06-22T01:35:42;11.33;;;5.63;;
12663;SDS011;6396;58.490;15.528;2023-06-22T01:38:10;9.43;;;6.40;;
12663;SDS011;6396;58.490;15.528;2023-06-22T01:40:37;8.07;;;6.10;;
12663;SDS011;6396;58.490;15.528;2023-06-22T01:43:04;6.43;;;5.80;;
12663;SDS011;6396;58.490;15.528;2023-06-22T01:45:32;9.50;;;5.93;;
12663;SDS011;6396;58.490;15.528;2023-06-22T01:48:00;10.03;;;6.57;;
12663;SDS011;6396;58.490;15.528;2023-06-22T01:50:28;7.77;;;5.33;;
12663;SDS011;6396;58.490;15.528;2023-06-22T01:52:55;6.33;;;5.50;;
12663;SDS011;6396;58.490;15.528;2023-06-22T01:55:21;7.00;;;5.37;;
12663;SDS011;6396;58.490;15.528;2023-06-22T01:57:48;8.20;;;5.60;;
12663;SDS011;6396;58.490;15.528;2023-06-22T02:00:17;9.07;;;5.17;;
12663;SDS011;6396;58.490;15.528;2023-06-22T02:02:50;9.40;;;5.60;;
12663;SDS011;6396;58.490;15.528;2023-06-22T02:05:26;8.57;;;5.40;;
12663;SDS011;6396;58.490;15.528;2023-06-22T02:08:00;5.87;;;5.27;;
12663;SDS011;6396;58.490;15.528;2023-06-22T02:10:31;7.23;;;5.73;;
12663;SDS011;6396;58.490;15.528;2023-06-22T02:13:00;7.30;;;5.60;;
12663;SDS011;6396;58.490;15.528;2023-06-22T02:15:29;8.30;;;5.53;;
12663;SDS011;6396;58.490;15.528;2023-06-22T02:17:56;6.00;;;5.17;;
12663;SDS011;6396;58.490;15.528;2023-06-22T02:20:23;7.37;;;5.13;;
12663;SDS011;6396;58.490;15.528;2023-06-22T02:22:51;8.90;;;5.00;;
12663;SDS011;6396;58.490;15.528;2023-06-22T02:25:18;7.77;;;4.90;;
12663;SDS011;6396;58.490;15.528;2023-06-22T02:27:46;5.70;;;4.83;;
12663;SDS011;6396;58.490;15.528;2023-06-22T02:30:13;10.03;;;6.07;;
12663;SDS011;6396;58.490;15.528;2023-06-22T02:32:41;6.70;;;5.33;;
12663;SDS011;6396;58.490;15.528;2023-06-22T02:35:08;7.03;;;4.73;;
12663;SDS011;6396;58.490;15.528;2023-06-22T02:37:35;6.47;;;4.70;;
12663;SDS011;6396;58.490;15.528;2023-06-22T02:40:06;9.83;;;5.40;;
12663;SDS011;6396;58.490;15.528;2023-06-22T02:42:34;8.50;;;5.90;;
12663;SDS011;6396;58.490;15.528;2023-06-22T02:45:01;6.23;;;4.90;;
12663;SDS011;6396;58.490;15.528;2023-06-22T02:47:27;6.93;;;4.93;;
12663;SDS011;6396;58.490;15.528;2023-06-22T02:49:54;6.70;;;5.37;;
12663;SDS011;6396;58.490;15.528;2023-06-22T02:52:21;6.70;;;4.80;;
12663;SDS011;6396;58.490;15.528;2023-06-22T02:54:48;9.40;;;5.93;;
12663;SDS011;6396;58.490;15.528;2023-06-22T02:57:16;8.20;;;5.67;;
12663;SDS011;6396;58.490;15.528;2023-06-22T02:59:42;7.40;;;5.13;;
12663;SDS011;6396;58.490;15.528;2023-06-22T03:02:09;8.63;;;5.30;;
12663;SDS011;6396;58.490;15.528;2023-06-22T03:04:36;7.90;;;5.53;;
12663;SDS011;6396;58.490;15.528;2023-06-22T03:07:03;7.27;;;5.70;;
12663;SDS011;6396;58.490;15.528;2023-06-22T03:09:30;8.43;;;5.90;;
12663;SDS011;6396;58.490;15.528;2023-06-22T03:11:57;7.17;;;6.43;;
12663;SDS011;6396;58.490;15.528;2023-06-22T03:14:25;8.07;;;5.47;;
12663;SDS011;6396;58.490;15.528;2023-06-22T03:16:52;7.17;;;5.63;;
12663;SDS011;6396;58.490;15.528;2023-06-22T03:19:19;7.07;;;6.20;;
12663;SDS011;6396;58.490;15.528;2023-06-22T03:21:46;7.77;;;5.47;;
12663;SDS011;6396;58.490;15.528;2023-06-22T03:24:13;7.60;;;5.90;;
12663;SDS011;6396;58.490;15.528;2023-06-22T03:26:40;8.83;;;6.00;;
12663;SDS011;6396;58.490;15.528;2023-06-22T03:29:06;8.73;;;6.00;;
12663;SDS011;6396;58.490;15.528;2023-06-22T03:31:35;9.03;;;5.50;;
12663;SDS011;6396;58.490;15.528;2023-06-22T03:34:01;7.27;;;6.00;;
12663;SDS011;6396;58.490;15.528;2023-06-22T03:36:28;7.30;;;5.53;;
12663;SDS011;6396;58.490;15.528;2023-06-22T03:38:55;8.00;;;5.90;;
12663;SDS011;6396;58.490;15.528;2023-06-22T03:41:22;8.70;;;5.87;;
12663;SDS011;6396;58.490;15.528;2023-06-22T03:43:48;10.27;;;6.17;;
12663;SDS011;6396;58.490;15.528;2023-06-22T03:46:15;10.70;;;6.10;;
12663;SDS011;6396;58.490;15.528;2023-06-22T03:48:44;9.80;;;6.47;;
12663;SDS011;6396;58.490;15.528;2023-06-22T03:51:10;6.97;;;5.87;;
12663;SDS011;6396;58.490;15.528;2023-06-22T03:53:37;11.30;;;6.03;;
12663;SDS011;6396;58.490;15.528;2023-06-22T03:56:04;8.70;;;6.07;;
12663;SDS011;6396;58.490;15.528;2023-06-22T03:58:31;6.90;;;5.70;;
12663;SDS011;6396;58.490;15.528;2023-06-22T04:00:58;8.87;;;6.70;;
12663;SDS011;6396;58.490;15.528;2023-06-22T04:03:26;8.13;;;5.90;;
12663;SDS011;6396;58.490;15.528;2023-06-22T04:05:54;10.23;;;6.43;;
12663;SDS011;6396;58.490;15.528;2023-06-22T04:08:21;10.97;;;6.27;;
12663;SDS011;6396;58.490;15.528;2023-06-22T04:10:47;8.20;;;6.23;;
12663;SDS011;6396;58.490;15.528;2023-06-22T04:13:14;7.63;;;6.13;;
12663;SDS011;6396;58.490;15.528;2023-06-22T04:15:41;11.80;;;7.47;;
12663;SDS011;6396;58.490;15.528;2023-06-22T04:18:08;9.50;;;6.57;;
12663;SDS011;6396;58.490;15.528;2023-06-22T04:20:35;7.57;;;6.17;;
12663;SDS011;6396;58.490;15.528;2023-06-22T04:23:03;8.80;;;6.57;;
12663;SDS011;6396;58.490;15.528;2023-06-22T04:25:31;9.37;;;6.80;;
12663;SDS011;6396;58.490;15.528;2023-06-22T04:27:58;9.67;;;6.57;;
12663;SDS011;6396;58.490;15.528;2023-06-22T04:30:26;9.23;;;6.60;;
12663;SDS011;6396;58.490;15.528;2023-06-22T04:32:57;8.43;;;6.53;;
12663;SDS011;6396;58.490;15.528;2023-06-22T04:35:25;9.73;;;7.07;;
12663;SDS011;6396;58.490;15.528;2023-06-22T04:37:53;11.77;;;7.43;;
12663;SDS011;6396;58.490;15.528;2023-06-22T04:40:23;9.27;;;6.53;;
12663;SDS011;6396;58.490;15.528;2023-06-22T04:42:50;10.87;;;6.97;;
12663;SDS011;6396;58.490;15.528;2023-06-22T04:45:18;9.60;;;6.57;;
12663;SDS011;6396;58.490;15.528;2023-06-22T04:47:46;7.20;;;5.97;;
12663;SDS011;6396;58.490;15.528;2023-06-22T04:50:13;9.77;;;7.13;;
12663;SDS011;6396;58.490;15.528;2023-06-22T04:52:40;8.40;;;6.17;;
12663;SDS011;6396;58.490;15.528;2023-06-22T04:55:07;7.77;;;5.97;;
12663;SDS011;6396;58.490;15.528;2023-06-22T04:57:37;8.33;;;6.30;;
12663;SDS011;6396;58.490;15.528;2023-06-22T05:00:14;11.53;;;7.03;;
12663;SDS011;6396;58.490;15.528;2023-06-22T05:02:46;6.47;;;5.83;;
12663;SDS011;6396;58.490;15.528;2023-06-22T05:05:23;9.73;;;6.60;;
12663;SDS011;6396;58.490;15.528;2023-06-22T05:07:51;8.63;;;6.30;;
12663;SDS011;6396;58.490;15.528;2023-06-22T05:10:20;10.50;;;7.27;;
12663;SDS011;6396;58.490;15.528;2023-06-22T05:15:48;8.60;;;6.90;;
12663;SDS011;6396;58.490;15.528;2023-06-22T05:18:15;8.13;;;6.60;;
12663;SDS011;6396;58.490;15.528;2023-06-22T05:20:41;7.40;;;6.60;;
12663;SDS011;6396;58.490;15.528;2023-06-22T05:23:08;9.07;;;6.50;;
12663;SDS011;6396;58.490;15.528;2023-06-22T05:25:38;9.67;;;6.87;;
12663;SDS011;6396;58.490;15.528;2023-06-22T05:28:19;11.47;;;7.63;;
12663;SDS011;6396;58.490;15.528;2023-06-22T05:30:49;9.23;;;7.43;;
12663;SDS011;6396;58.490;15.528;2023-06-22T05:33:16;12.37;;;6.57;;
12663;SDS011;6396;58.490;15.528;2023-06-22T05:35:43;9.67;;;6.60;;
12663;SDS011;6396;58.490;15.528;2023-06-22T05:38:20;11.17;;;6.60;;
12663;SDS011;6396;58.490;15.528;2023-06-22T05:40:47;9.23;;;6.23;;
12663;SDS011;6396;58.490;15.528;2023-06-22T05:43:13;10.33;;;7.20;;
12663;SDS011;6396;58.490;15.528;2023-06-22T05:45:40;11.37;;;6.90;;
12663;SDS011;6396;58.490;15.528;2023-06-22T05:48:08;10.50;;;6.90;;
12663;SDS011;6396;58.490;15.528;2023-06-22T05:50:36;10.60;;;7.20;;
12663;SDS011;6396;58.490;15.528;2023-06-22T05:53:03;10.97;;;6.73;;
12663;SDS011;6396;58.490;15.528;2023-06-22T05:55:31;8.33;;;6.90;;
12663;SDS011;6396;58.490;15.528;2023-06-22T05:57:58;10.67;;;6.63;;
12663;SDS011;6396;58.490;15.528;2023-06-22T06:00:25;8.57;;;6.57;;
12663;SDS011;6396;58.490;15.528;2023-06-22T06:02:52;11.23;;;6.77;;
12663;SDS011;6396;58.490;15.528;2023-06-22T06:05:20;8.27;;;6.37;;
12663;SDS011;6396;58.490;15.528;2023-06-22T06:07:49;7.43;;;6.70;;
12663;SDS011;6396;58.490;15.528;2023-06-22T06:10:15;9.83;;;7.13;;
12663;SDS011;6396;58.490;15.528;2023-06-22T06:12:42;7.40;;;6.27;;
12663;SDS011;6396;58.490;15.528;2023-06-22T06:15:09;8.60;;;6.73;;
12663;SDS011;6396;58.490;15.528;2023-06-22T06:17:43;9.37;;;6.73;;
12663;SDS011;6396;58.490;15.528;2023-06-22T06:20:11;8.87;;;6.20;;
12663;SDS011;6396;58.490;15.528;2023-06-22T06:22:40;7.73;;;6.60;;
12663;SDS011;6396;58.490;15.528;2023-06-22T06:25:08;8.73;;;6.83;;
12663;SDS011;6396;58.490;15.528;2023-06-22T06:27:35;12.13;;;7.13;;
12663;SDS011;6396;58.490;15.528;2023-06-22T06:30:02;9.60;;;6.87;;
12663;SDS011;6396;58.490;15.528;2023-06-22T06:32:29;9.77;;;6.80;;
12663;SDS011;6396;58.490;15.528;2023-06-22T06:34:56;9.07;;;6.80;;
12663;SDS011;6396;58.490;15.528;2023-06-22T06:37:23;11.03;;;6.97;;
12663;SDS011;6396;58.490;15.528;2023-06-22T06:39:51;7.60;;;6.77;;
12663;SDS011;6396;58.490;15.528;2023-06-22T06:42:18;8.53;;;6.63;;
12663;SDS011;6396;58.490;15.528;2023-06-22T06:44:46;9.13;;;6.23;;
12663;SDS011;6396;58.490;15.528;2023-06-22T06:47:12;7.77;;;6.20;;
12663;SDS011;6396;58.490;15.528;2023-06-22T06:49:39;10.23;;;6.23;;
12663;SDS011;6396;58.490;15.528;2023-06-22T06:52:06;7.37;;;6.23;;
12663;SDS011;6396;58.490;15.528;2023-06-22T06:54:33;9.17;;;6.67;;
12663;SDS011;6396;58.490;15.528;2023-06-22T06:57:01;8.47;;;6.20;;
12663;SDS011;6396;58.490;15.528;2023-06-22T06:59:28;8.37;;;5.90;;
12663;SDS011;6396;58.490;15.528;2023-06-22T07:01:56;9.77;;;6.40;;
12663;SDS011;6396;58.490;15.528;2023-06-22T07:04:23;10.40;;;6.23;;
12663;SDS011;6396;58.490;15.528;2023-06-22T07:06:49;8.07;;;6.00;;
12663;SDS011;6396;58.490;15.528;2023-06-22T07:09:16;7.80;;;5.60;;
12663;SDS011;6396;58.490;15.528;2023-06-22T07:11:43;9.53;;;6.20;;
12663;SDS011;6396;58.490;15.528;2023-06-22T07:14:12;9.00;;;5.67;;
12663;SDS011;6396;58.490;15.528;2023-06-22T07:16:38;6.77;;;5.60;;
12663;SDS011;6396;58.490;15.528;2023-06-22T07:19:05;9.53;;;5.90;;
12663;SDS011;6396;58.490;15.528;2023-06-22T07:21:33;9.83;;;5.43;;
12663;SDS011;6396;58.490;15.528;2023-06-22T07:24:00;8.13;;;5.67;;
12663;SDS011;6396;58.490;15.528;2023-06-22T07:26:26;8.60;;;5.67;;
12663;SDS011;6396;58.490;15.528;2023-06-22T07:28:53;9.50;;;5.80;;
12663;SDS011;6396;58.490;15.528;2023-06-22T07:31:23;8.27;;;5.57;;
12663;SDS011;6396;58.490;15.528;2023-06-22T07:33:50;7.73;;;5.70;;
12663;SDS011;6396;58.490;15.528;2023-06-22T07:36:17;7.63;;;5.67;;
12663;SDS011;6396;58.490;15.528;2023-06-22T07:38:44;8.07;;;6.30;;
12663;SDS011;6396;58.490;15.528;2023-06-22T07:41:11;11.13;;;5.53;;
12663;SDS011;6396;58.490;15.528;2023-06-22T07:43:39;10.27;;;5.57;;
12663;SDS011;6396;58.490;15.528;2023-06-22T07:46:05;6.83;;;4.97;;
12663;SDS011;6396;58.490;15.528;2023-06-22T07:48:36;8.57;;;5.57;;
12663;SDS011;6396;58.490;15.528;2023-06-22T07:51:03;6.63;;;4.97;;
12663;SDS011;6396;58.490;15.528;2023-06-22T07:53:30;7.93;;;5.30;;
12663;SDS011;6396;58.490;15.528;2023-06-22T07:55:56;6.10;;;4.83;;
12663;SDS011;6396;58.490;15.528;2023-06-22T07:58:23;10.13;;;5.70;;
12663;SDS011;6396;58.490;15.528;2023-06-22T08:00:50;8.07;;;5.03;;
12663;SDS011;6396;58.490;15.528;2023-06-22T08:03:16;7.30;;;5.33;;
12663;SDS011;6396;58.490;15.528;2023-06-22T08:05:45;9.40;;;5.53;;
12663;SDS011;6396;58.490;15.528;2023-06-22T08:08:11;7.33;;;5.13;;
12663;SDS011;6396;58.490;15.528;2023-06-22T08:10:39;10.93;;;5.30;;
12663;SDS011;6396;58.490;15.528;2023-06-22T08:13:07;6.80;;;4.70;;
12663;SDS011;6396;58.490;15.528;2023-06-22T08:15:34;7.40;;;4.53;;
12663;SDS011;6396;58.490;15.528;2023-06-22T08:18:00;8.03;;;5.30;;
12663;SDS011;6396;58.490;15.528;2023-06-22T08:20:27;7.60;;;5.37;;
12663;SDS011;6396;58.490;15.528;2023-06-22T08:22:56;6.03;;;4.40;;
12663;SDS011;6396;58.490;15.528;2023-06-22T08:25:30;6.87;;;4.83;;
12663;SDS011;6396;58.490;15.528;2023-06-22T08:27:56;5.93;;;4.67;;
12663;SDS011;6396;58.490;15.528;2023-06-22T08:30:23;5.70;;;4.63;;
12663;SDS011;6396;58.490;15.528;2023-06-22T08:32:50;7.07;;;5.03;;
12663;SDS011;6396;58.490;15.528;2023-06-22T08:35:17;6.90;;;5.00;;
12663;SDS011;6396;58.490;15.528;2023-06-22T08:37:43;6.50;;;4.20;;
12663;SDS011;6396;58.490;15.528;2023-06-22T08:40:17;6.77;;;4.43;;
12663;SDS011;6396;58.490;15.528;2023-06-22T08:42:44;7.70;;;4.47;;
12663;SDS011;6396;58.490;15.528;2023-06-22T08:45:11;6.88;;;4.50;;
12663;SDS011;6396;58.490;15.528;2023-06-22T08:47:39;5.07;;;4.57;;
12663;SDS011;6396;58.490;15.528;2023-06-22T08:50:07;8.05;;;4.43;;
12663;SDS011;6396;58.490;15.528;2023-06-22T08:52:34;6.63;;;4.38;;
12663;SDS011;6396;58.490;15.528;2023-06-22T08:55:01;5.87;;;4.40;;
12663;SDS011;6396;58.490;15.528;2023-06-22T08:57:30;7.07;;;4.65;;
12663;SDS011;6396;58.490;15.528;2023-06-22T08:59:57;5.60;;;4.15;;
12663;SDS011;6396;58.490;15.528;2023-06-22T09:02:24;6.80;;;4.35;;
12663;SDS011;6396;58.490;15.528;2023-06-22T09:04:51;4.83;;;4.33;;
12663;SDS011;6396;58.490;15.528;2023-06-22T09:07:20;5.27;;;4.37;;
12663;SDS011;6396;58.490;15.528;2023-06-22T09:09:48;7.97;;;4.80;;
12663;SDS011;6396;58.490;15.528;2023-06-22T09:12:15;7.68;;;4.32;;
12663;SDS011;6396;58.490;15.528;2023-06-22T09:14:43;9.25;;;4.50;;
12663;SDS011;6396;58.490;15.528;2023-06-22T09:17:10;4.93;;;4.10;;
12663;SDS011;6396;58.490;15.528;2023-06-22T09:19:37;4.97;;;4.33;;
12663;SDS011;6396;58.490;15.528;2023-06-22T09:22:04;4.78;;;3.92;;
12663;SDS011;6396;58.490;15.528;2023-06-22T09:24:31;6.90;;;4.28;;
12663;SDS011;6396;58.490;15.528;2023-06-22T09:26:58;5.57;;;4.45;;
12663;SDS011;6396;58.490;15.528;2023-06-22T09:29:25;7.57;;;4.03;;
12663;SDS011;6396;58.490;15.528;2023-06-22T09:31:53;6.28;;;4.32;;
12663;SDS011;6396;58.490;15.528;2023-06-22T09:34:22;6.07;;;4.20;;
12663;SDS011;6396;58.490;15.528;2023-06-22T09:36:48;5.13;;;3.85;;
12663;SDS011;6396;58.490;15.528;2023-06-22T09:39:15;5.30;;;4.18;;
12663;SDS011;6396;58.490;15.528;2023-06-22T09:41:47;5.37;;;4.23;;
12663;SDS011;6396;58.490;15.528;2023-06-22T09:44:42;4.27;;;3.87;;
12663;SDS011;6396;58.490;15.528;2023-06-22T09:47:10;4.57;;;4.03;;
12663;SDS011;6396;58.490;15.528;2023-06-22T09:49:37;6.70;;;3.93;;
12663;SDS011;6396;58.490;15.528;2023-06-22T09:52:04;8.20;;;4.37;;
12663;SDS011;6396;58.490;15.528;2023-06-22T09:54:32;5.23;;;4.30;;
12663;SDS011;6396;58.490;15.528;2023-06-22T09:56:58;6.43;;;4.73;;
12663;SDS011;6396;58.490;15.528;2023-06-22T09:59:25;4.87;;;3.93;;
12663;SDS011;6396;58.490;15.528;2023-06-22T10:01:52;8.90;;;5.07;;
12663;SDS011;6396;58.490;15.528;2023-06-22T10:04:20;7.53;;;4.23;;
12663;SDS011;6396;58.490;15.528;2023-06-22T10:06:47;4.90;;;4.30;;
12663;SDS011;6396;58.490;15.528;2023-06-22T10:09:13;6.27;;;4.20;;
12663;SDS011;6396;58.490;15.528;2023-06-22T10:11:40;4.67;;;4.00;;
12663;SDS011;6396;58.490;15.528;2023-06-22T10:14:07;7.07;;;4.17;;
12663;SDS011;6396;58.490;15.528;2023-06-22T10:16:35;5.20;;;4.43;;
12663;SDS011;6396;58.490;15.528;2023-06-22T10:19:02;4.83;;;4.17;;
12663;SDS011;6396;58.490;15.528;2023-06-22T10:21:30;6.13;;;4.20;;
12663;SDS011;6396;58.490;15.528;2023-06-22T10:23:57;4.97;;;4.03;;
12663;SDS011;6396;58.490;15.528;2023-06-22T10:26:30;4.87;;;3.77;;
12663;SDS011;6396;58.490;15.528;2023-06-22T10:28:57;4.90;;;4.10;;
12663;SDS011;6396;58.490;15.528;2023-06-22T10:31:24;4.50;;;4.10;;
12663;SDS011;6396;58.490;15.528;2023-06-22T10:33:52;6.63;;;4.60;;
12663;SDS011;6396;58.490;15.528;2023-06-22T10:36:18;5.20;;;4.30;;
12663;SDS011;6396;58.490;15.528;2023-06-22T10:38:46;4.57;;;4.13;;
12663;SDS011;6396;58.490;15.528;2023-06-22T10:41:13;5.50;;;4.13;;
12663;SDS011;6396;58.490;15.528;2023-06-22T10:43:41;7.33;;;3.70;;
12663;SDS011;6396;58.490;15.528;2023-06-22T10:46:07;4.23;;;3.43;;
12663;SDS011;6396;58.490;15.528;2023-06-22T10:48:34;5.47;;;3.23;;
12663;SDS011;6396;58.490;15.528;2023-06-22T10:51:01;5.53;;;3.60;;
12663;SDS011;6396;58.490;15.528;2023-06-22T10:53:27;4.23;;;3.50;;
12663;SDS011;6396;58.490;15.528;2023-06-22T10:55:56;4.57;;;3.60;;
12663;SDS011;6396;58.490;15.528;2023-06-22T10:58:22;5.00;;;3.77;;
12663;SDS011;6396;58.490;15.528;2023-06-22T11:00:50;5.43;;;3.80;;
12663;SDS011;6396;58.490;15.528;2023-06-22T11:03:16;4.83;;;3.70;;
12663;SDS011;6396;58.490;15.528;2023-06-22T11:05:43;5.50;;;3.70;;
12663;SDS011;6396;58.490;15.528;2023-06-22T11:08:11;4.80;;;3.73;;
12663;SDS011;6396;58.490;15.528;2023-06-22T11:10:37;6.30;;;3.77;;
12663;SDS011;6396;58.490;15.528;2023-06-22T11:13:06;5.77;;;3.60;;
12663;SDS011;6396;58.490;15.528;2023-06-22T11:15:34;3.87;;;3.57;;
12663;SDS011;6396;58.490;15.528;2023-06-22T11:18:02;3.93;;;3.27;;
12663;SDS011;6396;58.490;15.528;2023-06-22T11:20:30;3.47;;;3.17;;
12663;SDS011;6396;58.490;15.528;2023-06-22T11:22:59;4.20;;;3.77;;
12663;SDS011;6396;58.490;15.528;2023-06-22T11:25:26;4.00;;;3.57;;
12663;SDS011;6396;58.490;15.528;2023-06-22T11:27:53;6.03;;;3.70;;
12663;SDS011;6396;58.490;15.528;2023-06-22T11:30:21;4.47;;;3.77;;
12663;SDS011;6396;58.490;15.528;2023-06-22T11:32:49;3.83;;;3.40;;
12663;SDS011;6396;58.490;15.528;2023-06-22T11:35:15;5.53;;;3.57;;
12663;SDS011;6396;58.490;15.528;2023-06-22T11:37:42;4.47;;;3.73;;
12663;SDS011;6396;58.490;15.528;2023-06-22T11:40:09;4.07;;;3.60;;
12663;SDS011;6396;58.490;15.528;2023-06-22T11:42:37;5.93;;;3.77;;
12663;SDS011;6396;58.490;15.528;2023-06-22T11:45:04;4.23;;;3.67;;
12663;SDS011;6396;58.490;15.528;2023-06-22T11:47:33;4.23;;;3.70;;
12663;SDS011;6396;58.490;15.528;2023-06-22T11:50:00;4.33;;;3.83;;
12663;SDS011;6396;58.490;15.528;2023-06-22T11:52:27;4.80;;;3.50;;
12663;SDS011;6396;58.490;15.528;2023-06-22T11:54:53;5.13;;;3.70;;
12663;SDS011;6396;58.490;15.528;2023-06-22T11:57:20;5.97;;;4.10;;
12663;SDS011;6396;58.490;15.528;2023-06-22T11:59:47;6.23;;;3.50;;
12663;SDS011;6396;58.490;15.528;2023-06-22T12:02:13;10.37;;;4.07;;
12663;SDS011;6396;58.490;15.528;2023-06-22T12:04:42;4.30;;;3.37;;
12663;SDS011;6396;58.490;15.528;2023-06-22T12:07:08;4.43;;;3.47;;
12663;SDS011;6396;58.490;15.528;2023-06-22T12:09:35;3.70;;;3.30;;
12663;SDS011;6396;58.490;15.528;2023-06-22T12:12:02;5.57;;;3.97;;
12663;SDS011;6396;58.490;15.528;2023-06-22T12:14:30;5.73;;;3.73;;
12663;SDS011;6396;58.490;15.528;2023-06-22T12:16:57;4.23;;;3.60;;
12663;SDS011;6396;58.490;15.528;2023-06-22T12:19:23;4.60;;;3.70;;
12663;SDS011;6396;58.490;15.528;2023-06-22T12:21:51;4.83;;;3.50;;
12663;SDS011;6396;58.490;15.528;2023-06-22T12:24:18;5.43;;;3.40;;
12663;SDS011;6396;58.490;15.528;2023-06-22T12:26:45;7.37;;;3.40;;
12663;SDS011;6396;58.490;15.528;2023-06-22T12:29:12;5.63;;;3.70;;
12663;SDS011;6396;58.490;15.528;2023-06-22T12:31:38;4.30;;;3.50;;
12663;SDS011;6396;58.490;15.528;2023-06-22T12:34:06;3.80;;;3.30;;
12663;SDS011;6396;58.490;15.528;2023-06-22T12:36:33;4.13;;;3.73;;
12663;SDS011;6396;58.490;15.528;2023-06-22T12:39:01;4.57;;;3.30;;
12663;SDS011;6396;58.490;15.528;2023-06-22T12:41:28;4.97;;;3.40;;
12663;SDS011;6396;58.490;15.528;2023-06-22T12:43:55;3.63;;;3.27;;
12663;SDS011;6396;58.490;15.528;2023-06-22T12:46:21;4.97;;;3.27;;
12663;SDS011;6396;58.490;15.528;2023-06-22T12:48:48;4.00;;;3.60;;
12663;SDS011;6396;58.490;15.528;2023-06-22T12:51:19;4.50;;;3.43;;
12663;SDS011;6396;58.490;15.528;2023-06-22T12:53:47;5.93;;;3.50;;
12663;SDS011;6396;58.490;15.528;2023-06-22T12:56:15;4.17;;;3.70;;
12663;SDS011;6396;58.490;15.528;2023-06-22T12:58:42;4.67;;;3.80;;
12663;SDS011;6396;58.490;15.528;2023-06-22T13:01:09;3.93;;;3.53;;
12663;SDS011;6396;58.490;15.528;2023-06-22T13:03:36;6.33;;;3.67;;
12663;SDS011;6396;58.490;15.528;2023-06-22T13:06:03;3.80;;;3.40;;
12663;SDS011;6396;58.490;15.528;2023-06-22T13:08:30;3.17;;;2.87;;
12663;SDS011;6396;58.490;15.528;2023-06-22T13:10:56;3.80;;;3.20;;
12663;SDS011;6396;58.490;15.528;2023-06-22T13:13:25;6.50;;;3.30;;
12663;SDS011;6396;58.490;15.528;2023-06-22T13:15:52;3.70;;;3.30;;
12663;SDS011;6396;58.490;15.528;2023-06-22T13:18:19;3.13;;;2.80;;
12663;SDS011;6396;58.490;15.528;2023-06-22T13:20:46;4.43;;;3.20;;
12663;SDS011;6396;58.490;15.528;2023-06-22T13:23:12;4.50;;;3.27;;
12663;SDS011;6396;58.490;15.528;2023-06-22T13:25:39;4.30;;;3.10;;
12663;SDS011;6396;58.490;15.528;2023-06-22T13:28:06;6.40;;;2.97;;
12663;SDS011;6396;58.490;15.528;2023-06-22T13:30:35;3.97;;;3.30;;
12663;SDS011;6396;58.490;15.528;2023-06-22T13:33:01;3.30;;;3.00;;
12663;SDS011;6396;58.490;15.528;2023-06-22T13:35:28;4.43;;;3.60;;
12663;SDS011;6396;58.490;15.528;2023-06-22T13:37:55;3.83;;;2.97;;
12663;SDS011;6396;58.490;15.528;2023-06-22T13:40:22;4.57;;;3.10;;
12663;SDS011;6396;58.490;15.528;2023-06-22T13:42:48;3.53;;;3.00;;
12663;SDS011;6396;58.490;15.528;2023-06-22T13:45:15;4.20;;;3.17;;
12663;SDS011;6396;58.490;15.528;2023-06-22T13:47:45;4.97;;;3.17;;
12663;SDS011;6396;58.490;15.528;2023-06-22T13:50:12;4.17;;;3.13;;
12663;SDS011;6396;58.490;15.528;2023-06-22T13:52:39;4.83;;;3.23;;
12663;SDS011;6396;58.490;15.528;2023-06-22T13:55:06;3.60;;;3.30;;
12663;SDS011;6396;58.490;15.528;2023-06-22T13:57:33;7.93;;;3.83;;
12663;SDS011;6396;58.490;15.528;2023-06-22T14:00:00;5.20;;;3.70;;
12663;SDS011;6396;58.490;15.528;2023-06-22T14:02:27;3.33;;;3.03;;
12663;SDS011;6396;58.490;15.528;2023-06-22T14:04:55;3.50;;;3.20;;
12663;SDS011;6396;58.490;15.528;2023-06-22T14:07:22;3.87;;;3.27;;
12663;SDS011;6396;58.490;15.528;2023-06-22T14:09:49;4.20;;;3.33;;
12663;SDS011;6396;58.490;15.528;2023-06-22T14:12:16;4.23;;;3.03;;
12663;SDS011;6396;58.490;15.528;2023-06-22T14:14:43;3.97;;;2.67;;
12663;SDS011;6396;58.490;15.528;2023-06-22T14:17:10;4.30;;;3.10;;
12663;SDS011;6396;58.490;15.528;2023-06-22T14:19:37;3.53;;;2.90;;
12663;SDS011;6396;58.490;15.528;2023-06-22T14:22:05;4.10;;;3.47;;
12663;SDS011;6396;58.490;15.528;2023-06-22T14:24:32;4.77;;;3.00;;
12663;SDS011;6396;58.490;15.528;2023-06-22T14:26:59;3.03;;;2.70;;
12663;SDS011;6396;58.490;15.528;2023-06-22T14:29:28;4.43;;;2.97;;
12663;SDS011;6396;58.490;15.528;2023-06-22T14:31:55;5.63;;;2.90;;
12663;SDS011;6396;58.490;15.528;2023-06-22T14:34:21;3.17;;;2.87;;
12663;SDS011;6396;58.490;15.528;2023-06-22T14:36:48;4.57;;;3.20;;
12663;SDS011;6396;58.490;15.528;2023-06-22T14:39:16;3.40;;;3.10;;
12663;SDS011;6396;58.490;15.528;2023-06-22T14:41:43;3.73;;;2.90;;
12663;SDS011;6396;58.490;15.528;2023-06-22T14:44:10;3.47;;;2.60;;
12663;SDS011;6396;58.490;15.528;2023-06-22T14:46:37;2.97;;;2.77;;
12663;SDS011;6396;58.490;15.528;2023-06-22T14:49:03;4.80;;;3.27;;
12663;SDS011;6396;58.490;15.528;2023-06-22T14:51:30;3.27;;;2.77;;